Timeline UpdatesTrip UpdatesNews PostsPvt PostsTravel TipsAdmin PostsConv PostsFollowed PostsChat RequestsBlog PostsPNR Posts

Disclaimer
Search
 
 
Thu Apr 24, 2014 13:59:47 ISTHomeTrainsΣChainsAtlasPNRForumGalleryNewsFAQTripsMembersLoginFeedback
No Recent News for this Train
Other Trains in the News **new
Latest...
Cancelled on 5/4/14 #1046550
Sat Apr 05, 2014 (12:53AM)
⇐ Return Journey: Train# 15484

14083⇒15483/Sikkim Mahananda Express

Apr 24 departure has been Rescheduled to start 3h 15m late
New Time: 10:30
Jan 14 2014 (8:05PM)
Change Departure Station:
Change Arrival Station:
Post a Train Travel TipPost a Train Travel Tip **new
Post a Comment/Question/Picture/VideoPost a Comment/Question/Picture/Video
Pantry/Catering
✓ Pantry Car Avbl
✓ Catering Avbl
RSA - Rake Sharing
Rake/Coach Composition
Loco-SLR-GS-GS-B1-AB1-B2-S13-S12-S11-PC-S10-S9-S8-S7-S6-S5-S4-S3-S2-S1-GS-GS-GS-SLR.
Loco
SGUJ WDP-4 (APDJ to PNBE), GZB/MGS WAP-4 (PNBE to DLI)
News    PNR    Forum    Time-Table    Availability    Fare Chart    Map    Arr/Dep History    Trips    Gallery    ΣChains    X/O    Timeline    
Travel Time: 16h 5m    29 halts    Distance: 658 km    Avg Speed: 40 km/hr
Type: Mail/Express
Zone: NFR/Northeast Frontier
Departs @ 07:15 (Avg 3h 46m late)
Platform# 1
SMTWTFS
Alipur Duar Junction/APDJ 
Arrives @ 23:20 (Avg 4h 15m late)
Platform# 4
SMTWTFS
Patna Junction/PNBE 

29 halts. 125 intermediate Stations between Alipur Duar Junction and Patna Junction

Show ALL intermediate Stations  Show Old Time-Table

#CodeStation NameX/OArrivesAvgDepartsAvgHaltPFDay#KmSpeedElevZoneAddress
1APDJ»Alipur Duar Junction (3)»  -07:15+3:46110.06053mNFR03564-255091, West Bengal
2HSAHasimara (3)X  07:50+3:4707:52+3:472m--134.856123mNFRDist - jalpaiguri, West Bengal
3DLODalgaon (3)  08:19+3:4908:20+3:511m1159.950120mNFRPh:03563-266013, West Bengal
4BNVBinnaguri (3)  08:31+3:5208:32+3:531m--169.162132mNFRBinnaguri, West Bengal
5NMZNew Mal Junction (3)X  09:15+4:0209:20+4:075m--1113.441161mNFRDist - Jalpaiguri, West Bengal
6SGUJSiliguri Junction (5)  10:30+3:5810:35+4:055m--1161.229120mNFRDist-Darjeeling Siliguri-734001, West Bengal
7NJPNew Jalpaiguri Junction (8)X  10:50+3:4511:10+3:4820m31168.576114mNFRCity-Siliguri . Dist-Jalpaiguri, West Bengal
8AUBAluabari Road (2)  11:55+3:5911:57+4:002m21225.2730mNFRDist - uttar Dinajpur, West Bengal
9KNEKishanGanj (3)X  12:22+4:0412:27+4:045m21255.86852mNFRKishanganj, Bihar
10DLKDalkhola (3)X  12:52+4:0712:53+4:081m101284.37644mNFRDalkola, West Bengal
11BOEBarsoi Junction (3)  13:16+4:1313:18+4:142m--1313.45737mNFRdist- katihar, Bihar
12AZRAzamnagar Road (2)  13:32+4:1513:33+4:181m--1326.73534mNFRAzamnagar, Bihar
13LAVLabha  14:09+4:1314:10+4:141m--1347.81829mNFRNational Highway 81, Bihar
14KIRKatihar Junction (7)XO  15:25+3:5815:45+3:5920m51370.64335mNFR854105., Bihar
15SMOSemapur16:01+3:5816:03+3:592m--1382.1-35mECRKatihar, Bihar
16CRRKaragola Road  16:06+4:0616:07+4:091m--1392.96836mECRLachhmipur, Bihar
17KUEKurselaX  16:22+4:1216:23+4:161m--1409.97431mECRNH 31, Bihar
18NNANaugachia  16:38+4:1616:39+4:171m--1428.46037mECRBhagalpur, Bihar
19THBThana Bihpur JunctionXO  16:55+4:1816:56+4:201m--1444.31639mECRThana Bihpur, Bihar
20NNRNarayanpur  17:24+4:1417:25+4:131m--1451.95039mECRNarayanpur, Bihar
21PSRPasrahaX  17:39+4:1317:40+4:171m--1463.55341mECRPasraha, Bihar
22MSKMahes Khunt  17:54+4:1917:55+4:231m--1475.95737mECRMaheshkhunt, Bihar
23MNEMansi Junction (3)X  18:06+4:2418:07+4:261m--1486.33143mECRMansi, Bihar
24KGGKhagaria Junction (3)X  18:24+4:2218:25+4:261m--1495.15343mECRKhagaria, Bihar
25SKJSahibpur Kamal Junction (2)X  18:39+4:2518:40+4:271m--1507.54241mECRShahpur Kamal, Bihar
26LKNLakhminia  18:54+4:2318:55+4:241m--1517.22245mECRBegusarai, Bihar
27BGSBegu Sarai (2)X  19:44+4:1419:45+4:111m--1535.015 ECRBegusarai, Bihar
28BJUBarauni Junction (9)X  20:40+4:3620:45+4:315m11548.419 ECRBegusarai, Bihar
29MKAMokama Junction (3)X  21:51+4:5221:53+4:492m31569.18848mECRPatna, Bihar
30BKPBakhtiyarpur Junction (5)  22:23+4:4322:25+4:452m--1613.24951mECRPatna, Bihar
31PNBE•Patna Junction (10)•X  23:20+4:1523:45+4:1925m41658.33557mECRPatna 800001, Bihar
32DNRDanapur (5)  00:01+4:3100:03+4:322m--2667.79158mECRKhagaul, Bihar
33ARAAra Junction (3)  00:29+4:3100:31+4:382m--2707.37163mECRarrah( 06182-233411), Bihar
34BXRBuxar (3)X  01:29+4:2801:32+4:283m--2775.84267mECRBuxar, Bihar
35MGSMughal Sarai Junction (8)X  03:45+3:4604:00+3:5015m42869.76483mECRMughalsarai 232101, Uttar Pradesh
36MZPMirzapur (3)  04:59+4:0805:00+4:121m--2932.94088mNCRMirzapur, Uttar Pradesh
37BDLVindhyachal (3)X  05:11+4:1505:12+4:171m--2940.28888mNCRMirzapur, Uttar Pradesh
38NYNNaini Junction (4)  06:03+4:2006:05+4:122m221015.01798mNCRAllahabad, Uttar Pradesh
39ALDAllahabad Junction (10)X  06:30+4:2006:35+4:255m321022.189100mNCRAllahabad 211003, Uttar Pradesh
40FTPFatehpur (3)  07:54+4:2807:55+4:221m--21138.862120mNCRFatehpur, Uttar Pradesh
41CNBKanpur Central (10)  09:10+4:3409:20+4:3810m521216.441128mNCRKanpur, Uttar Pradesh
42PNKPanki (3)X  09:37+4:3709:38+4:381m--21227.976129mNCRKANPUR-208 020, Uttar Pradesh
43RURARura (4)X  10:04+4:4410:05+4:461m--21260.771137mNCRJhinjhak, Uttar Pradesh
44JJKJhinjhak (3)  10:21+4:4310:22+4:451m321279.859140mNCRAuraiya, Uttar Pradesh
45PHDPhaphund (4)X  10:42+4:4910:43+4:511m--21299.653146mNCRdist. Auraiya, Uttar Pradesh
46ULDAchalda (3)X  11:02+4:5011:03+4:521m--21316.465147mNCRDist. Auraiya(05688-1072), Uttar Pradesh
47BNTBharthana (3)X  11:21+4:5111:22+5:011m--21335.952147mNCRBharthana, Uttar Pradesh
48ETWEtawah (5)X  11:45+4:5611:46+5:071m221355.872154mNCRDistt. Etawah, Uttar Pradesh
49SKBShikohabad Junction (4)  12:32+5:0712:33+5:181m321411.257166mNCRDistrict Firozabad, Uttar Pradesh
50FZDFirozabad (4)O  12:54+5:0612:55+5:181m321431.125164mNCRFirozabad, Uttar Pradesh
51TDLTundla Junction (4)  13:35+5:0513:45+5:0310m221447.670167mNCRDistt.Firozabad, Uttar Pradesh
52JLSJalesar Road (1)X  14:09+5:1114:10+5:131m121475.563172mNCRMDR 106W, Uttar Pradesh
53HRSHathras Junction (3)  14:29+5:1714:30+5:211m--21495.660183mNCRMahamaya Nagar(05722-242803), Uttar Pradesh
54ALJNAligarh Junction (4)O  15:00+5:2815:05+5:375m221525.775192mNCRAligarh, Uttar Pradesh
55KRJKhurja Junction (4)XO  15:40+5:3115:45+5:305m--21569.238199mNCRBulandshahr, Uttar Pradesh
56GZBGhaziabad Junction (6)X  17:25+5:1117:30+5:165m321631.943217mNRGhaziabad, Uttar Pradesh
57DSAShahdara Junction (4)  17:49+5:1017:50+5:191m--21645.519212mNRCircular Rd, Delhi NCT
58DLIOld Delhi Junction (16)  18:10+5:20-1121651.8-219mNRNear Chandni Chowk Metro Station, Delhi NCT
Scroll to Top
Scroll to Bottom